Time;durP1;ratioP1;P1;durP2;ratioP2;P2;SDS_P1;SDS_P2;PMS_P1;PMS_P2;Temp;Humidity;BMP_temperature;BMP_pressure;BME280_temperature;BME280_humidity;BME280_pressure;Samples;Min_cycle;Max_cycle;Signal;HPM_P1;HPM_P2
2022/11/09 00:02:57;;;;;;;2.05;1.10;;;20.20;44.40;;;;;;6215307;28;20034;-76
2022/11/09 00:05:59;;;;;;;3.63;1.20;;;20.20;44.20;;;;;;6241960;28;20044;-77
2022/11/09 00:09:01;;;;;;;7.25;1.40;;;20.20;44.20;;;;;;6243870;28;20060;-77
2022/11/09 00:12:03;;;;;;;2.58;1.30;;;20.10;44.10;;;;;;6244306;28;20038;-76
2022/11/09 00:15:05;;;;;;;4.50;1.40;;;20.10;44.20;;;;;;6241529;28;20048;-78
2022/11/09 00:18:06;;;;;;;2.17;1.25;;;20.10;44.20;;;;;;6246015;28;20050;-76
2022/11/09 00:21:09;;;;;;;1.90;0.95;;;20.10;44.30;;;;;;6243375;28;20052;-79
2022/11/09 00:24:11;;;;;;;4.03;0.98;;;20.10;44.30;;;;;;6246189;28;20139;-76
2022/11/09 00:27:12;;;;;;;1.92;0.60;;;20.20;44.30;;;;;;6228072;28;20061;-76
2022/11/09 00:30:14;;;;;;;2.33;1.00;;;20.30;44.20;;;;;;6244538;28;20037;-76
2022/11/09 00:33:15;;;;;;;1.92;0.93;;;20.40;44.00;;;;;;6227017;28;20108;-76
2022/11/09 00:36:18;;;;;;;1.80;0.80;;;20.50;43.90;;;;;;6231638;28;20037;-76
2022/11/09 00:39:19;;;;;;;1.98;0.80;;;20.60;43.70;;;;;;6248633;28;20352;-77
2022/11/09 00:42:20;;;;;;;1.10;0.70;;;20.70;43.50;;;;;;6231946;28;20107;-76
2022/11/09 00:45:21;;;;;;;5.75;0.90;;;20.70;43.40;;;;;;6215573;28;20037;-77
2022/11/09 00:48:22;;;;;;;5.00;1.10;;;20.80;43.40;;;;;;6246905;28;20039;-78
2022/11/09 00:51:24;;;;;;;2.75;0.75;;;20.80;43.20;;;;;;6234032;28;20033;-76
2022/11/09 00:54:25;;;;;;;1.15;0.60;;;20.80;43.10;;;;;;6233876;28;20102;-76
2022/11/09 00:57:26;;;;;;;6.72;1.23;;;20.80;43.00;;;;;;6251189;28;20037;-76
2022/11/09 01:00:27;;;;;;;6.07;1.05;;;20.80;43.00;;;;;;6233565;28;20033;-76
2022/11/09 01:03:29;;;;;;;4.20;0.90;;;20.80;42.90;;;;;;6225917;28;20107;-76
2022/11/09 01:06:30;;;;;;;2.25;0.60;;;20.90;42.70;;;;;;6233535;28;20049;-76
2022/11/09 01:09:31;;;;;;;2.42;0.65;;;20.90;42.70;;;;;;6233678;28;20041;-76
2022/11/09 01:12:32;;;;;;;4.05;1.23;;;21.00;42.60;;;;;;6248053;28;20041;-76
2022/11/09 01:15:33;;;;;;;2.83;0.80;;;21.10;42.40;;;;;;6233327;28;20489;-77
2022/11/09 01:18:38;;;;;;;0.60;0.38;;;21.10;42.30;;;;;;6240663;28;20501;-77
2022/11/09 01:21:39;;;;;;;5.43;1.00;;;21.20;42.00;;;;;;6240746;28;20022;-76
2022/11/09 01:24:41;;;;;;;0.73;0.40;;;21.30;41.90;;;;;;6226320;28;20032;-77
2022/11/09 01:27:42;;;;;;;2.17;0.73;;;21.40;41.70;;;;;;6216512;28;20040;-77
2022/11/09 01:30:43;;;;;;;0.47;0.47;;;21.50;41.50;;;;;;6214135;28;20470;-76
2022/11/09 01:33:44;;;;;;;2.05;0.80;;;21.50;41.30;;;;;;6214116;28;20519;-76
2022/11/09 01:36:48;;;;;;;1.20;0.60;;;21.60;41.00;;;;;;6229733;28;20034;-76
2022/11/09 01:39:49;;;;;;;2.47;0.80;;;21.70;41.00;;;;;;6250041;28;20442;-76
2022/11/09 01:42:50;;;;;;;1.60;0.75;;;21.70;40.70;;;;;;6230734;28;20143;-76
2022/11/09 01:46:08;;;;;;;0.32;0.32;;;21.80;40.70;;;;;;6246569;28;20483;-76
2022/11/09 01:49:36;;;;;;;3.70;0.73;;;21.80;40.60;;;;;;6243044;28;20041;-76
2022/11/09 01:52:41;;;;;;;2.53;0.60;;;21.90;40.40;;;;;;6244557;28;20025;-76
2022/11/09 01:55:45;;;;;;;2.50;0.50;;;21.90;40.00;;;;;;6244920;28;20039;-76
2022/11/09 01:59:01;;;;;;;0.45;0.45;;;21.90;39.90;;;;;;6212644;28;20042;-76
2022/11/09 02:02:04;;;;;;;2.78;0.80;;;21.90;39.80;;;;;;6244012;28;20046;-76
2022/11/09 02:05:13;;;;;;;2.65;0.70;;;22.00;39.70;;;;;;6206591;28;20037;-77
2022/11/09 02:08:18;;;;;;;1.60;0.70;;;21.90;39.50;;;;;;6226487;28;20041;-76
2022/11/09 02:11:23;;;;;;;2.72;0.90;;;22.00;39.60;;;;;;6247147;28;20135;-77
2022/11/09 02:14:26;;;;;;;1.20;0.60;;;22.00;39.50;;;;;;6231969;28;20124;-77
2022/11/09 02:17:29;;;;;;;1.42;0.68;;;22.00;39.40;;;;;;6231811;28;20053;-76
2022/11/09 02:20:42;;;;;;;1.23;0.57;;;22.00;39.40;;;;;;6214440;28;20137;-77
2022/11/09 02:23:43;;;;;;;3.25;0.90;;;22.00;39.50;;;;;;6220353;28;20125;-77
2022/11/09 02:26:49;;;;;;;2.40;0.60;;;22.00;39.30;;;;;;6231692;28;20113;-76
2022/11/09 02:29:51;;;;;;;2.10;0.55;;;22.00;39.30;;;;;;6247990;28;20482;-76
2022/11/09 02:32:52;;;;;;;1.05;0.52;;;22.00;39.30;;;;;;6239332;28;20044;-76
2022/11/09 02:35:54;;;;;;;0.40;0.40;;;22.00;39.30;;;;;;6215469;28;20057;-77
2022/11/09 02:38:56;;;;;;;5.50;0.80;;;22.00;39.30;;;;;;6214982;28;20064;-77
2022/11/09 02:42:16;;;;;;;0.63;0.45;;;22.00;39.20;;;;;;6209748;28;20045;-77
2022/11/09 02:45:19;;;;;;;4.93;0.70;;;22.00;39.20;;;;;;6244562;28;20437;-77
2022/11/09 02:48:21;;;;;;;1.48;0.60;;;22.10;39.00;;;;;;6245766;28;20126;-76
2022/11/09 02:51:22;;;;;;;0.30;0.30;;;22.10;39.00;;;;;;6246541;28;20038;-77
2022/11/09 02:54:24;;;;;;;1.70;0.40;;;22.10;39.00;;;;;;6246273;28;20489;-78
2022/11/09 02:57:27;;;;;;;0.93;0.60;;;22.10;38.80;;;;;;6246828;28;20418;-77
2022/11/09 03:00:28;;;;;;;1.13;0.65;;;22.10;38.80;;;;;;6247412;28;20044;-76
2022/11/09 03:03:29;;;;;;;2.85;0.98;;;22.10;39.00;;;;;;6223911;28;20172;-77
2022/11/09 03:06:33;;;;;;;3.85;0.68;;;22.10;38.90;;;;;;6206668;28;20045;-77
2022/11/09 03:09:37;;;;;;;2.17;0.70;;;22.20;38.90;;;;;;6206492;28;20050;-76
2022/11/09 03:12:38;;;;;;;0.68;0.60;;;22.20;38.80;;;;;;6261567;28;20033;-77
2022/11/09 03:15:42;;;;;;;7.22;0.77;;;22.20;39.60;;;;;;6232112;28;20050;-78
2022/11/09 03:18:43;;;;;;;6.57;0.82;;;22.20;38.90;;;;;;6225934;28;20033;-77
2022/11/09 03:21:45;;;;;;;1.00;0.50;;;22.20;38.80;;;;;;6223558;28;20041;-77
2022/11/09 03:24:46;;;;;;;1.70;0.65;;;22.10;38.70;;;;;;6204970;28;20419;-77
2022/11/09 03:27:47;;;;;;;4.57;0.90;;;22.20;38.80;;;;;;6206291;28;20113;-76
2022/11/09 03:30:49;;;;;;;8.98;0.75;;;22.20;38.50;;;;;;6206149;28;20041;-77
2022/11/09 03:33:50;;;;;;;6.00;0.75;;;22.20;38.60;;;;;;6190654;28;20054;-77
2022/11/09 03:36:51;;;;;;;2.72;0.50;;;22.20;38.50;;;;;;6221309;28;20041;-76
2022/11/09 03:39:54;;;;;;;4.47;0.80;;;22.20;38.50;;;;;;6228112;28;20069;-77
2022/11/09 03:42:55;;;;;;;2.33;0.63;;;22.20;38.30;;;;;;6244632;28;20115;-77
2022/11/09 03:45:57;;;;;;;3.13;0.65;;;22.20;38.30;;;;;;6227544;28;20030;-77
2022/11/09 03:48:59;;;;;;;1.63;0.73;;;22.30;38.30;;;;;;6227631;28;20029;-77
2022/11/09 03:52:01;;;;;;;4.22;0.80;;;22.30;38.20;;;;;;6245100;28;20056;-76
2022/11/09 03:55:03;;;;;;;6.78;0.47;;;22.30;38.20;;;;;;6246950;28;20351;-76
2022/11/09 03:58:06;;;;;;;7.03;0.70;;;22.30;38.30;;;;;;6246926;28;20030;-76
2022/11/09 04:01:07;;;;;;;1.20;0.60;;;22.30;38.30;;;;;;6262062;28;20033;-76
2022/11/09 04:04:08;;;;;;;0.98;0.60;;;22.30;38.40;;;;;;6207786;28;20037;-77
2022/11/09 04:07:10;;;;;;;3.03;0.60;;;22.30;38.40;;;;;;6228093;28;20034;-76
2022/11/09 04:10:11;;;;;;;1.55;0.52;;;22.30;38.40;;;;;;6266284;28;20038;-77
2022/11/09 04:13:12;;;;;;;1.58;0.57;;;22.30;38.30;;;;;;6239547;28;20033;-76
2022/11/09 04:16:13;;;;;;;1.85;0.60;;;22.20;38.40;;;;;;6218639;28;20145;-77
2022/11/09 04:19:15;;;;;;;2.25;0.95;;;22.20;38.60;;;;;;6234128;28;20033;-76
2022/11/09 04:22:15;;;;;;;2.53;0.70;;;22.20;38.60;;;;;;6252385;28;20033;-78
2022/11/09 04:25:16;;;;;;;4.63;0.80;;;22.20;38.60;;;;;;6251295;28;20045;-77
2022/11/09 04:28:18;;;;;;;0.93;0.50;;;22.20;38.60;;;;;;6252206;28;20033;-77
2022/11/09 04:31:19;;;;;;;1.02;0.73;;;22.30;38.60;;;;;;6266969;28;20037;-77
2022/11/09 04:34:20;;;;;;;2.05;0.70;;;22.30;38.60;;;;;;6217983;28;20073;-77
2022/11/09 04:37:21;;;;;;;1.42;0.60;;;22.30;38.60;;;;;;6247063;28;20044;-76
2022/11/09 04:40:24;;;;;;;1.42;0.70;;;22.30;38.60;;;;;;6232474;28;20045;-76
2022/11/09 04:43:25;;;;;;;0.60;0.57;;;22.40;38.70;;;;;;6249697;28;20038;-76
2022/11/09 04:46:26;;;;;;;1.30;0.52;;;22.40;38.70;;;;;;6248813;28;20068;-77
2022/11/09 04:49:28;;;;;;;8.02;0.85;;;22.40;38.70;;;;;;6250079;28;20119;-77
2022/11/09 04:52:29;;;;;;;1.45;0.60;;;22.40;38.80;;;;;;6250530;28;20045;-77
2022/11/09 04:55:30;;;;;;;0.88;0.50;;;22.30;38.90;;;;;;6266922;28;20462;-76
2022/11/09 04:58:32;;;;;;;4.18;0.80;;;22.30;38.90;;;;;;6233724;28;20038;-75
2022/11/09 05:01:33;;;;;;;3.47;0.90;;;22.30;38.80;;;;;;6233454;28;20037;-77
2022/11/09 05:04:34;;;;;;;2.08;0.50;;;22.30;38.90;;;;;;6193975;28;20033;-76
2022/11/09 05:07:36;;;;;;;2.40;0.63;;;22.40;39.00;;;;;;6231712;28;20029;-76
2022/11/09 05:10:37;;;;;;;0.75;0.55;;;22.30;39.10;;;;;;6250867;28;20051;-76
2022/11/09 05:13:38;;;;;;;2.45;0.70;;;22.30;39.20;;;;;;6233496;28;20374;-77
2022/11/09 05:16:39;;;;;;;2.50;0.70;;;22.30;39.20;;;;;;6233488;28;20066;-76
2022/11/09 05:19:40;;;;;;;2.58;0.63;;;22.30;39.30;;;;;;6232882;28;20041;-76
2022/11/09 05:26:01;;;;;;;2.92;0.70;;;22.30;39.40;;;;;;6228075;28;20053;-76
2022/11/09 05:29:04;;;;;;;4.15;0.98;;;22.30;39.50;;;;;;6230405;28;20363;-77
2022/11/09 05:32:05;;;;;;;2.90;1.15;;;22.30;39.50;;;;;;6225497;28;20033;-77
2022/11/09 05:35:07;;;;;;;4.43;1.23;;;22.20;39.80;;;;;;6221293;28;20042;-77
2022/11/09 05:38:08;;;;;;;5.28;1.55;;;22.00;40.00;;;;;;6225852;28;20025;-77
2022/11/09 05:41:09;;;;;;;5.20;1.65;;;21.80;40.10;;;;;;6229252;28;20473;-77
2022/11/09 05:44:10;;;;;;;5.32;1.75;;;21.40;40.30;;;;;;6230316;28;20125;-77
2022/11/09 05:47:11;;;;;;;4.32;1.80;;;20.90;40.80;;;;;;6212353;28;20091;-76
2022/11/09 05:50:14;;;;;;;5.07;1.60;;;20.40;41.40;;;;;;6211414;28;20129;-75
2022/11/09 05:53:15;;;;;;;2.92;1.52;;;20.10;42.20;;;;;;6228587;28;20034;-76
2022/11/09 05:56:16;;;;;;;4.05;1.70;;;19.70;42.60;;;;;;6229866;28;20037;-77
2022/11/09 05:59:17;;;;;;;11.20;1.70;;;19.50;43.30;;;;;;6230800;28;20029;-76
2022/11/09 06:02:19;;;;;;;7.53;2.15;;;19.20;43.90;;;;;;6225674;28;20049;-77
2022/11/09 06:05:20;;;;;;;6.90;1.60;;;19.00;44.20;;;;;;6208480;28;20107;-77
2022/11/09 06:08:21;;;;;;;3.58;1.70;;;18.90;44.40;;;;;;6246248;28;20029;-77
2022/11/09 06:11:22;;;;;;;9.15;2.10;;;18.70;44.70;;;;;;6246956;28;20466;-76
2022/11/09 06:14:23;;;;;;;4.10;1.30;;;18.60;45.10;;;;;;6244571;28;20053;-76
2022/11/09 06:17:24;;;;;;;2.65;1.40;;;18.50;45.30;;;;;;6230732;28;20782;-76
2022/11/09 06:20:27;;;;;;;6.18;1.38;;;18.40;45.50;;;;;;6245173;28;20132;-76
2022/11/09 06:23:29;;;;;;;4.63;1.75;;;18.30;45.60;;;;;;6243657;28;20033;-75
2022/11/09 06:26:30;;;;;;;2.70;1.58;;;18.30;45.80;;;;;;6243321;28;20117;-78
2022/11/09 06:29:31;;;;;;;8.07;3.03;;;18.20;45.90;;;;;;6233535;28;20547;-76
2022/11/09 06:32:32;;;;;;;5.45;2.15;;;18.20;46.10;;;;;;6224370;28;20068;-75
2022/11/09 06:35:34;;;;;;;4.60;1.70;;;18.10;46.30;;;;;;6229672;28;20065;-77
2022/11/09 06:38:35;;;;;;;2.40;1.52;;;18.10;46.50;;;;;;6226579;28;20042;-75
2022/11/09 06:41:36;;;;;;;4.38;1.65;;;18.00;46.70;;;;;;6224526;28;20041;-76
2022/11/09 06:44:37;;;;;;;5.25;1.92;;;17.90;47.00;;;;;;6203701;28;20371;-77
2022/11/09 06:47:39;;;;;;;3.03;1.75;;;17.90;47.30;;;;;;6220907;28;20136;-76
2022/11/09 06:50:41;;;;;;;3.67;1.83;;;17.80;47.50;;;;;;6241224;28;20374;-76
2022/11/09 06:53:42;;;;;;;4.80;1.75;;;17.80;47.60;;;;;;6227879;28;20076;-76
2022/11/09 06:56:43;;;;;;;8.48;1.92;;;17.80;47.90;;;;;;6210457;28;20083;-76
2022/11/09 06:59:44;;;;;;;2.75;1.73;;;17.70;48.30;;;;;;6229139;28;20478;-77
2022/11/09 07:02:45;;;;;;;6.07;1.85;;;17.70;48.60;;;;;;6227759;28;20108;-77
2022/11/09 07:05:47;;;;;;;4.97;1.77;;;17.60;48.90;;;;;;6227943;28;20426;-76
2022/11/09 07:08:48;;;;;;;2.55;1.58;;;17.60;49.40;;;;;;6233132;28;20476;-76
2022/11/09 07:11:50;;;;;;;3.70;1.98;;;17.60;49.50;;;;;;6226787;28;20045;-77
2022/11/09 07:14:51;;;;;;;4.00;2.00;;;17.60;49.90;;;;;;6226825;28;20041;-73
2022/11/09 07:17:56;;;;;;;4.55;2.22;;;17.60;49.90;;;;;;6243466;28;20037;-78
2022/11/09 07:20:58;;;;;;;2.67;1.65;;;17.60;50.00;;;;;;6243047;28;20144;-75
2022/11/09 07:23:59;;;;;;;4.55;2.03;;;17.60;50.10;;;;;;6209200;28;20105;-74
2022/11/09 07:27:00;;;;;;;5.85;2.55;;;17.60;50.40;;;;;;6227965;28;20040;-74
2022/11/09 07:30:01;;;;;;;5.90;2.20;;;17.60;50.70;;;;;;6214285;28;20045;-74
2022/11/09 07:33:03;;;;;;;6.28;2.22;;;17.60;51.10;;;;;;6226006;28;20053;-74
2022/11/09 07:36:05;;;;;;;4.80;2.15;;;17.50;51.40;;;;;;6224751;28;20053;-75
2022/11/09 07:39:06;;;;;;;8.75;2.33;;;17.50;51.90;;;;;;6202691;28;20034;-74
2022/11/09 07:42:07;;;;;;;4.13;2.10;;;17.50;52.30;;;;;;6206485;28;20041;-74
2022/11/09 07:45:10;;;;;;;6.60;2.47;;;17.50;52.40;;;;;;6208887;28;20466;-74
2022/11/09 07:48:12;;;;;;;9.20;2.70;;;17.50;52.80;;;;;;6192652;28;20048;-75
2022/11/09 07:51:13;;;;;;;8.52;2.50;;;17.50;52.90;;;;;;6207148;28;20129;-75
2022/11/09 07:54:14;;;;;;;3.65;1.80;;;17.60;52.90;;;;;;6225552;28;20042;-75
2022/11/09 07:57:15;;;;;;;5.57;2.05;;;17.60;53.00;;;;;;6213671;28;20370;-74
2022/11/09 08:00:16;;;;;;;5.63;2.40;;;17.60;53.10;;;;;;6248644;28;20129;-74
2022/11/09 08:03:18;;;;;;;8.15;2.83;;;17.60;53.50;;;;;;6241961;28;20030;-74
2022/11/09 08:06:19;;;;;;;9.07;2.20;;;17.60;53.60;;;;;;6224123;28;20042;-74
2022/11/09 08:09:20;;;;;;;6.28;2.65;;;17.60;54.10;;;;;;6225569;28;20057;-74
2022/11/09 08:12:21;;;;;;;7.00;2.60;;;17.60;54.80;;;;;;6221648;28;20034;-75
2022/11/09 08:15:23;;;;;;;4.82;2.63;;;17.50;55.30;;;;;;6208662;28;20046;-74
2022/11/09 08:18:24;;;;;;;4.47;2.17;;;17.40;55.50;;;;;;6225249;28;20049;-73
2022/11/09 08:21:25;;;;;;;5.50;2.35;;;17.40;55.60;;;;;;6224950;28;20143;-75
2022/11/09 08:24:26;;;;;;;6.72;2.47;;;17.30;55.80;;;;;;6249709;28;20034;-74
2022/11/09 08:27:29;;;;;;;6.90;2.47;;;17.30;56.00;;;;;;6249288;28;20395;-74
2022/11/09 08:30:31;;;;;;;8.43;1.95;;;17.30;56.10;;;;;;6201519;28;20478;-75
2022/11/09 08:33:40;;;;;;;6.43;2.00;;;17.20;56.30;;;;;;6239757;28;20057;-74
2022/11/09 08:36:41;;;;;;;4.13;2.30;;;17.20;56.60;;;;;;6219643;28;20493;-74
2022/11/09 08:39:42;;;;;;;6.75;1.98;;;17.20;56.90;;;;;;6238118;28;20120;-74
2022/11/09 08:42:43;;;;;;;5.40;2.10;;;17.20;57.40;;;;;;6230917;28;20034;-74
2022/11/09 08:45:44;;;;;;;4.38;2.00;;;17.10;57.90;;;;;;6248393;28;20458;-74
2022/11/09 08:48:46;;;;;;;8.57;1.98;;;17.10;58.10;;;;;;6213963;28;20467;-75
2022/11/09 08:51:47;;;;;;;6.25;2.47;;;17.10;58.20;;;;;;6230372;28;20034;-75
2022/11/09 08:54:48;;;;;;;6.22;2.47;;;17.10;58.40;;;;;;6250000;28;20041;-75
2022/11/09 08:57:53;;;;;;;7.22;2.30;;;17.10;58.70;;;;;;6244854;28;20029;-75
2022/11/09 09:00:55;;;;;;;6.28;2.42;;;17.10;59.20;;;;;;6250702;28;20146;-75
2022/11/09 09:03:56;;;;;;;5.63;2.78;;;17.00;59.50;;;;;;6231357;28;20026;-76
2022/11/09 09:06:58;;;;;;;9.23;2.67;;;17.00;59.70;;;;;;6208528;28;20470;-74
2022/11/09 09:10:00;;;;;;;7.30;2.88;;;17.00;60.30;;;;;;6208241;28;20815;-74
2022/11/09 09:13:02;;;;;;;5.65;2.60;;;17.00;60.60;;;;;;6192276;28;20074;-74
2022/11/09 09:16:14;;;;;;;6.63;2.90;;;16.90;60.70;;;;;;6223803;28;20120;-76
2022/11/09 09:19:15;;;;;;;6.63;2.80;;;16.90;60.80;;;;;;6248929;28;20570;-75
2022/11/09 09:22:17;;;;;;;4.50;2.63;;;16.90;60.90;;;;;;6215094;28;20419;-74
2022/11/09 09:25:18;;;;;;;10.63;3.08;;;16.90;61.10;;;;;;6235978;28;20037;-75
2022/11/09 09:28:19;;;;;;;7.13;2.40;;;16.90;61.70;;;;;;6255057;28;20095;-75
2022/11/09 09:31:20;;;;;;;8.73;2.83;;;16.90;62.00;;;;;;6251755;28;20055;-75
2022/11/09 09:34:21;;;;;;;6.25;2.50;;;16.90;62.10;;;;;;6246700;28;20049;-75
2022/11/09 09:37:22;;;;;;;6.05;2.97;;;16.90;62.20;;;;;;6256723;28;20033;-75
2022/11/09 09:40:31;;;;;;;12.07;3.45;;;16.90;62.30;;;;;;6240439;28;20037;-76
2022/11/09 09:43:42;;;;;;;5.53;3.22;;;17.00;62.80;;;;;;6245098;28;20045;-74
2022/11/09 09:47:05;;;;;;;9.45;3.72;;;17.00;63.20;;;;;;6259950;28;20047;-75
2022/11/09 09:50:18;;;;;;;9.25;3.17;;;16.90;63.20;;;;;;6238115;28;20484;-75
2022/11/09 09:53:31;;;;;;;11.13;3.67;;;16.90;63.30;;;;;;6253904;28;20029;-75
2022/11/09 09:56:39;;;;;;;11.02;4.25;;;17.00;63.90;;;;;;6242914;28;20033;-75
2022/11/09 09:59:48;;;;;;;10.63;4.82;;;17.00;64.00;;;;;;6245555;28;20097;-75
2022/11/09 10:02:50;;;;;;;11.95;4.35;;;16.90;64.20;;;;;;6248833;28;20045;-75
2022/11/09 10:06:12;;;;;;;12.52;4.22;;;17.00;64.20;;;;;;6250558;28;20033;-76
2022/11/09 10:09:45;;;;;;;5.03;3.08;;;17.00;64.20;;;;;;6238655;28;20044;-76
2022/11/09 10:13:18;;;;;;;7.05;3.58;;;17.00;64.40;;;;;;6219670;28;20029;-74
2022/11/09 10:16:25;;;;;;;12.88;3.97;;;17.00;64.60;;;;;;6249902;28;20044;-75
2022/11/09 10:19:53;;;;;;;8.15;4.18;;;17.00;64.60;;;;;;6248891;28;20091;-74
2022/11/09 10:23:18;;;;;;;9.48;3.85;;;17.00;64.70;;;;;;6254757;28;20026;-74
2022/11/09 10:26:28;;;;;;;11.68;4.35;;;17.00;64.40;;;;;;6230894;28;20061;-75
2022/11/09 10:29:45;;;;;;;11.88;4.57;;;17.00;64.20;;;;;;6250794;28;20037;-75
2022/11/09 10:32:54;;;;;;;8.77;3.67;;;17.10;64.30;;;;;;6226768;28;20121;-75
2022/11/09 10:36:29;;;;;;;11.68;4.55;;;17.10;64.30;;;;;;6230922;28;20351;-75
2022/11/09 10:40:17;;;;;;;7.68;3.70;;;17.10;64.20;;;;;;6254417;28;20361;-75
2022/11/09 10:43:37;;;;;;;7.60;3.78;;;17.20;64.10;;;;;;6101350;29;20036;-76
2022/11/09 10:47:08;;;;;;;7.78;3.70;;;17.30;63.90;;;;;;6111926;29;20460;-75
2022/11/09 10:50:37;;;;;;;11.65;5.28;;;17.30;63.70;;;;;;6108794;29;20473;-75
2022/11/09 10:54:30;;;;;;;11.73;4.30;;;17.40;63.60;;;;;;6112101;29;20118;-75
2022/11/09 10:57:54;;;;;;;10.18;5.07;;;17.40;63.50;;;;;;6112256;29;20068;-74
2022/11/09 11:01:22;;;;;;;10.35;4.72;;;17.50;63.40;;;;;;6098507;29;20882;-75
2022/11/09 11:04:42;;;;;;;8.80;4.97;;;17.50;63.50;;;;;;6112611;29;20043;-75
2022/11/09 11:08:31;;;;;;;8.20;4.05;;;17.50;63.50;;;;;;6112457;29;20327;-75
2022/11/09 11:12:14;;;;;;;10.63;5.60;;;17.50;63.60;;;;;;6115004;29;20035;-76
2022/11/09 11:15:38;;;;;;;12.27;6.55;;;17.50;63.60;;;;;;6250405;28;20112;-76
2022/11/09 11:18:58;;;;;;;12.70;5.53;;;17.50;63.60;;;;;;6227769;28;20037;-76
2022/11/09 11:22:21;;;;;;;13.02;5.93;;;17.50;63.70;;;;;;6237373;28;20037;-76
2022/11/09 11:25:56;;;;;;;14.30;6.10;;;17.30;63.70;;;;;;6248851;28;20037;-76
2022/11/09 11:29:23;;;;;;;12.27;6.57;;;17.40;64.00;;;;;;6248216;28;20315;-75
2022/11/09 11:32:44;;;;;;;14.68;7.18;;;17.40;64.50;;;;;;6240287;28;20049;-76
2022/11/09 11:36:15;;;;;;;11.45;5.82;;;17.40;64.70;;;;;;6209233;28;20148;-75
2022/11/09 11:39:37;;;;;;;12.18;6.03;;;17.40;65.10;;;;;;6207191;28;20035;-75
2022/11/09 11:43:22;;;;;;;14.05;5.97;;;17.30;65.40;;;;;;6205264;28;20057;-74
2022/11/09 11:46:47;;;;;;;14.10;7.13;;;17.20;65.60;;;;;;6202720;28;20046;-75
2022/11/09 11:50:20;;;;;;;13.90;5.97;;;17.20;65.60;;;;;;6219048;28;20057;-75
2022/11/09 11:53:57;;;;;;;11.35;5.93;;;17.30;65.80;;;;;;6213666;28;20041;-75
2022/11/09 11:57:35;;;;;;;12.18;5.18;;;17.30;66.00;;;;;;6212623;28;20034;-75
2022/11/09 12:01:24;;;;;;;8.13;4.70;;;17.20;65.90;;;;;;6209020;28;20117;-75
2022/11/09 12:05:14;;;;;;;9.93;4.95;;;17.20;66.00;;;;;;6215810;28;20038;-75
2022/11/09 12:08:42;;;;;;;14.02;5.75;;;17.20;66.10;;;;;;6204976;28;20039;-75
2022/11/09 12:12:11;;;;;;;11.52;5.38;;;17.20;67.00;;;;;;6218916;28;20408;-75
2022/11/09 12:15:40;;;;;;;12.07;5.55;;;17.10;66.20;;;;;;6205245;28;20451;-75
2022/11/09 12:19:08;;;;;;;12.65;5.65;;;17.10;66.40;;;;;;6215113;28;20072;-75
2022/11/09 12:22:57;;;;;;;13.05;5.50;;;17.10;66.40;;;;;;6222902;28;20042;-75
2022/11/09 12:26:42;;;;;;;8.75;5.53;;;17.10;66.50;;;;;;6206768;28;20503;-75
2022/11/09 12:30:14;;;;;;;15.07;5.80;;;17.10;66.70;;;;;;6221922;28;20054;-75
2022/11/09 12:34:20;;;;;;;12.75;5.35;;;17.10;66.90;;;;;;6232678;28;20053;-75
2022/11/09 12:37:54;;;;;;;10.43;4.93;;;17.00;67.10;;;;;;6229781;28;20053;-76
2022/11/09 12:41:21;;;;;;;11.80;4.90;;;17.00;67.20;;;;;;6254363;28;20029;-76
2022/11/09 12:45:03;;;;;;;9.70;4.30;;;17.00;67.20;;;;;;6253002;28;20037;-75
2022/11/09 12:48:29;;;;;;;11.95;4.32;;;16.90;67.40;;;;;;6240746;28;20040;-74
2022/11/09 12:51:49;;;;;;;13.70;5.30;;;16.90;67.50;;;;;;6237164;28;20029;-75
2022/11/09 12:55:14;;;;;;;12.82;4.65;;;16.90;67.70;;;;;;6246671;28;20037;-75
2022/11/09 12:58:37;;;;;;;8.10;4.70;;;16.80;67.80;;;;;;6249712;28;20431;-75
2022/11/09 13:01:59;;;;;;;10.18;4.20;;;16.80;68.00;;;;;;6245249;28;20471;-76
2022/11/09 13:05:36;;;;;;;11.63;4.50;;;16.70;68.90;;;;;;6248007;28;20033;-76
2022/11/09 13:09:03;;;;;;;9.63;4.22;;;16.60;68.50;;;;;;6246385;28;20026;-74
2022/11/09 13:12:39;;;;;;;10.77;3.72;;;16.50;68.60;;;;;;6247971;28;20038;-75
2022/11/09 13:16:01;;;;;;;10.98;4.65;;;16.50;69.00;;;;;;6241576;28;20029;-75
2022/11/09 13:19:33;;;;;;;10.77;3.88;;;16.40;69.10;;;;;;6234840;28;20033;-75
2022/11/09 13:22:53;;;;;;;11.73;3.70;;;16.40;69.20;;;;;;6243063;28;20496;-75
2022/11/09 13:26:31;;;;;;;11.00;3.60;;;16.40;69.30;;;;;;6250921;28;20033;-74
2022/11/09 13:29:51;;;;;;;8.90;3.83;;;16.40;69.40;;;;;;6255096;28;20036;-74
2022/11/09 13:33:24;;;;;;;9.50;3.38;;;16.40;69.30;;;;;;6233159;28;20074;-74
2022/11/09 13:37:04;;;;;;;7.65;3.00;;;16.40;69.50;;;;;;6252987;28;20041;-75
2022/11/09 13:40:32;;;;;;;10.00;3.87;;;16.40;69.40;;;;;;6231815;28;20037;-75
2022/11/09 13:44:13;;;;;;;7.53;3.33;;;16.40;69.30;;;;;;6239396;28;20041;-74
2022/11/09 13:47:35;;;;;;;6.53;3.35;;;16.40;69.30;;;;;;6252843;28;20033;-74
2022/11/09 13:50:58;;;;;;;8.70;4.15;;;16.50;69.20;;;;;;6250195;28;20056;-74
2022/11/09 13:54:31;;;;;;;6.38;3.65;;;16.50;69.20;;;;;;6250636;28;20033;-74
2022/11/09 13:57:54;;;;;;;11.23;3.47;;;16.40;69.40;;;;;;6233825;28;20053;-74
2022/11/09 14:01:35;;;;;;;10.50;4.57;;;16.40;69.60;;;;;;6248401;28;20041;-75
2022/11/09 14:04:55;;;;;;;8.25;4.22;;;16.30;69.70;;;;;;6247267;28;20041;-74
2022/11/09 14:08:29;;;;;;;11.43;4.38;;;16.30;69.70;;;;;;6237733;28;20037;-75
2022/11/09 14:11:56;;;;;;;8.85;3.97;;;16.30;69.90;;;;;;6232291;28;20406;-75
2022/11/09 14:15:42;;;;;;;12.32;3.83;;;16.30;70.10;;;;;;6228688;28;20230;-75
2022/11/09 14:19:17;;;;;;;7.75;3.50;;;16.30;70.10;;;;;;6234044;28;20041;-75
2022/11/09 14:22:39;;;;;;;6.88;2.97;;;16.30;70.20;;;;;;6246125;28;20085;-75
2022/11/09 14:26:14;;;;;;;12.27;4.45;;;16.20;70.30;;;;;;6236037;28;20052;-74
2022/11/09 14:29:36;;;;;;;10.68;4.22;;;16.20;70.40;;;;;;6248439;28;20049;-74
2022/11/09 14:32:58;;;;;;;5.85;4.03;;;16.30;70.30;;;;;;6245122;28;20046;-74
2022/11/09 14:36:17;;;;;;;9.88;4.72;;;16.30;70.30;;;;;;6235580;28;21476;-75
2022/11/09 14:39:37;;;;;;;10.07;5.18;;;16.30;70.20;;;;;;6245937;28;20037;-75
2022/11/09 14:43:20;;;;;;;11.40;5.13;;;16.40;70.40;;;;;;6248968;28;20044;-75
2022/11/09 14:46:39;;;;;;;9.77;4.85;;;16.40;70.40;;;;;;6241551;28;20486;-75
2022/11/09 14:49:59;;;;;;;10.60;4.93;;;16.40;70.50;;;;;;6237139;28;20061;-75
2022/11/09 14:53:32;;;;;;;7.47;4.68;;;16.40;70.60;;;;;;6229603;28;20107;-74
2022/11/09 14:56:53;;;;;;;9.85;5.13;;;16.40;70.70;;;;;;6250574;28;20053;-75
2022/11/09 15:00:29;;;;;;;6.80;4.60;;;16.40;70.70;;;;;;6234690;28;20065;-75
2022/11/09 15:04:07;;;;;;;9.63;4.43;;;16.40;70.90;;;;;;6241186;28;20046;-75
2022/11/09 15:07:33;;;;;;;9.77;4.72;;;16.40;71.80;;;;;;6246958;28;20049;-75
2022/11/09 15:10:53;;;;;;;11.95;4.82;;;16.40;70.80;;;;;;6245869;28;20413;-75
2022/11/09 15:14:18;;;;;;;9.15;5.40;;;16.40;70.90;;;;;;6247632;28;20041;-75
2022/11/09 15:17:45;;;;;;;7.00;4.32;;;16.40;71.10;;;;;;6242429;28;20061;-75
2022/11/09 15:21:31;;;;;;;8.10;4.25;;;16.40;71.10;;;;;;6234962;28;20458;-75
2022/11/09 15:24:50;;;;;;;10.55;5.32;;;16.40;71.10;;;;;;6250915;28;20037;-74
2022/11/09 15:28:12;;;;;;;8.85;4.93;;;16.40;71.00;;;;;;6231548;28;20117;-74
2022/11/09 15:31:32;;;;;;;9.60;5.00;;;16.50;71.10;;;;;;6245405;28;20032;-74
2022/11/09 15:34:54;;;;;;;11.00;4.63;;;16.50;71.90;;;;;;6242110;28;20350;-75
2022/11/09 15:38:34;;;;;;;11.75;4.53;;;16.50;71.10;;;;;;6245328;28;20045;-75
2022/11/09 15:41:56;;;;;;;10.90;5.00;;;16.50;71.10;;;;;;6249502;28;20040;-75
2022/11/09 15:45:18;;;;;;;10.00;4.30;;;16.50;71.00;;;;;;6234208;28;20042;-75
2022/11/09 15:48:38;;;;;;;8.80;4.25;;;16.50;71.00;;;;;;6235885;28;20045;-74
2022/11/09 15:51:57;;;;;;;9.88;4.70;;;16.50;70.90;;;;;;6235421;28;20033;-75
2022/11/09 15:55:22;;;;;;;10.45;4.57;;;16.40;71.10;;;;;;6248167;28;20041;-73
2022/11/09 15:58:42;;;;;;;9.57;3.95;;;16.40;71.40;;;;;;6251389;28;20029;-74
2022/11/09 16:02:02;;;;;;;7.60;4.07;;;16.40;72.20;;;;;;6235005;28;20045;-74
2022/11/09 16:05:24;;;;;;;7.22;4.28;;;16.40;71.30;;;;;;6250535;28;20037;-74
2022/11/09 16:08:47;;;;;;;10.02;5.47;;;16.40;71.30;;;;;;6254785;28;20466;-75
2022/11/09 16:12:07;;;;;;;10.40;5.20;;;16.40;71.40;;;;;;6253056;28;20469;-75
2022/11/09 16:15:28;;;;;;;17.52;8.15;;;16.30;71.20;;;;;;6237722;28;20365;-75
2022/11/09 16:18:49;;;;;;;15.05;6.88;;;16.30;71.30;;;;;;6248903;28;20046;-75
2022/11/09 16:22:10;;;;;;;13.38;6.28;;;16.30;71.30;;;;;;6240427;28;20033;-74
2022/11/09 16:25:30;;;;;;;14.70;6.07;;;16.40;71.40;;;;;;6236230;28;20038;-75
2022/11/09 16:28:50;;;;;;;8.88;5.05;;;16.40;71.30;;;;;;6245396;28;20442;-74
2022/11/09 16:32:09;;;;;;;11.63;5.65;;;16.40;71.10;;;;;;6225861;28;20034;-74
2022/11/09 16:35:29;;;;;;;9.48;5.10;;;16.40;71.10;;;;;;6237468;28;20049;-75
2022/11/09 16:38:52;;;;;;;8.15;5.22;;;16.40;71.10;;;;;;6230210;28;20502;-77
2022/11/09 16:42:13;;;;;;;7.50;4.35;;;16.40;71.10;;;;;;6236715;28;20049;-74